Time;durP1;ratioP1;P1;durP2;ratioP2;P2;SDS_P1;SDS_P2;PMS_P1;PMS_P2;Temp;Humidity;BMP_temperature;BMP_pressure;BME280_temperature;BME280_humidity;BME280_pressure;Samples;Min_cycle;Max_cycle;Signal;HPM_P1;HPM_P2
2022/10/26 00:01:21;;;;;;;36.58;9.23;;;19.20;96.70;;;;;;4951568;28;20157;-73
2022/10/26 00:03:49;;;;;;;31.80;8.25;;;19.20;96.70;;;;;;4932282;29;20576;-73
2022/10/26 00:06:20;;;;;;;33.55;7.82;;;19.30;96.70;;;;;;4924660;28;20069;-73
2022/10/26 00:08:48;;;;;;;34.80;8.02;;;19.30;96.70;;;;;;4950008;28;20043;-72
2022/10/26 00:11:18;;;;;;;28.88;8.95;;;19.30;96.70;;;;;;4959250;28;20739;-72
2022/10/26 00:13:47;;;;;;;37.13;9.45;;;19.30;96.70;;;;;;4964761;28;20047;-72
2022/10/26 00:16:16;;;;;;;29.63;8.93;;;19.30;96.70;;;;;;4930185;29;20087;-71
2022/10/26 00:18:45;;;;;;;29.35;8.73;;;19.10;96.70;;;;;;4932340;29;20047;-72
2022/10/26 00:21:18;;;;;;;26.70;8.65;;;19.20;96.70;;;;;;4930532;29;20546;-72
2022/10/26 00:23:46;;;;;;;28.02;8.00;;;19.10;96.70;;;;;;4938772;28;20516;-72
2022/10/26 00:26:14;;;;;;;22.73;7.07;;;19.10;96.70;;;;;;4957383;28;20085;-72
2022/10/26 00:28:44;;;;;;;17.30;6.65;;;19.10;96.70;;;;;;4942472;28;20047;-72
2022/10/26 00:31:14;;;;;;;17.88;7.20;;;19.10;96.70;;;;;;4915344;29;20058;-72
2022/10/26 00:33:43;;;;;;;17.55;6.65;;;19.10;96.70;;;;;;4949434;28;20061;-72
2022/10/26 00:36:13;;;;;;;18.85;7.40;;;19.00;96.70;;;;;;4930498;28;20063;-72
2022/10/26 00:38:44;;;;;;;23.05;6.68;;;19.00;96.70;;;;;;4934397;28;20150;-72
2022/10/26 00:41:15;;;;;;;21.38;7.35;;;19.00;96.70;;;;;;4938068;28;20058;-72
2022/10/26 00:43:45;;;;;;;26.25;8.23;;;19.00;96.70;;;;;;4936508;29;20058;-72
2022/10/26 00:46:15;;;;;;;27.55;8.48;;;19.00;96.70;;;;;;4948746;28;20521;-72
2022/10/26 00:48:47;;;;;;;30.20;8.85;;;19.00;96.70;;;;;;4940403;28;20047;-72
2022/10/26 00:51:22;;;;;;;21.80;8.10;;;19.00;96.70;;;;;;4959271;28;20133;-72
2022/10/26 00:53:50;;;;;;;21.05;7.72;;;19.00;96.70;;;;;;4956999;28;20047;-72
2022/10/26 00:56:19;;;;;;;27.15;7.05;;;18.90;96.70;;;;;;4950432;28;20043;-72
2022/10/26 00:58:48;;;;;;;19.10;7.00;;;18.90;96.70;;;;;;4952518;28;20043;-72
2022/10/26 01:01:16;;;;;;;17.00;7.15;;;19.00;96.70;;;;;;4931845;28;20047;-72
2022/10/26 01:03:45;;;;;;;13.93;6.45;;;19.00;96.70;;;;;;4937732;28;20048;-72
2022/10/26 01:06:13;;;;;;;16.50;6.82;;;18.90;96.70;;;;;;4918786;29;20521;-72
2022/10/26 01:08:43;;;;;;;19.40;7.25;;;18.90;96.70;;;;;;4931574;29;20050;-71
2022/10/26 01:11:11;;;;;;;16.33;6.45;;;19.00;96.70;;;;;;4937886;29;20039;-72
2022/10/26 01:13:42;;;;;;;16.88;6.82;;;19.00;96.70;;;;;;4958034;28;20051;-72
2022/10/26 01:16:31;;;;;;;19.17;7.35;;;18.90;96.70;;;;;;4949655;28;20055;-72
2022/10/26 01:19:15;;;;;;;17.38;6.68;;;18.90;96.70;;;;;;4937897;29;20055;-72
2022/10/26 01:21:49;;;;;;;15.98;6.15;;;18.80;96.70;;;;;;4960446;28;21471;-72
2022/10/26 01:24:57;;;;;;;15.50;6.10;;;18.90;96.70;;;;;;4932688;28;20058;-72
2022/10/26 01:27:30;;;;;;;15.60;6.20;;;18.90;96.70;;;;;;4948279;28;20189;-72
2022/10/26 01:30:23;;;;;;;14.45;6.07;;;18.80;96.70;;;;;;4949137;28;20047;-72
2022/10/26 01:33:14;;;;;;;16.80;6.65;;;18.70;96.70;;;;;;4928423;28;20043;-71
2022/10/26 01:35:48;;;;;;;18.13;6.40;;;18.70;96.70;;;;;;4967162;28;20462;-72
2022/10/26 01:38:43;;;;;;;15.43;6.07;;;18.70;96.70;;;;;;4952571;28;20557;-72
2022/10/26 01:41:16;;;;;;;13.00;6.35;;;18.60;96.70;;;;;;4951727;28;20560;-72
2022/10/26 01:43:49;;;;;;;14.13;5.88;;;18.60;96.70;;;;;;4949216;28;20042;-71
2022/10/26 01:46:22;;;;;;;14.18;6.57;;;18.60;96.70;;;;;;4952831;28;20550;-72
2022/10/26 01:48:54;;;;;;;13.90;5.85;;;18.50;96.70;;;;;;4955675;28;20048;-71
2022/10/26 01:51:23;;;;;;;16.50;5.50;;;18.50;96.70;;;;;;4963775;28;20055;-72
2022/10/26 01:53:51;;;;;;;14.60;5.85;;;18.40;96.70;;;;;;4953701;28;20043;-72
2022/10/26 01:56:22;;;;;;;16.45;6.53;;;18.40;96.70;;;;;;4947823;28;20047;-72
2022/10/26 01:59:11;;;;;;;15.65;6.82;;;18.40;96.70;;;;;;4947371;28;20046;-72
2022/10/26 02:02:02;;;;;;;13.68;6.88;;;18.40;96.70;;;;;;4921396;29;20046;-73
2022/10/26 02:04:41;;;;;;;15.43;7.50;;;18.30;96.70;;;;;;4931303;29;20039;-72
2022/10/26 02:07:17;;;;;;;15.93;7.40;;;18.40;96.70;;;;;;4923825;28;20117;-72
2022/10/26 02:09:55;;;;;;;15.95;6.35;;;18.30;96.70;;;;;;4936996;28;20051;-72
2022/10/26 02:12:32;;;;;;;17.27;6.82;;;18.40;96.70;;;;;;4940778;28;20390;-72
2022/10/26 02:15:07;;;;;;;14.77;6.78;;;18.40;96.70;;;;;;4921771;28;20081;-72
2022/10/26 02:17:45;;;;;;;14.50;7.43;;;18.40;96.70;;;;;;4946351;28;20051;-72
2022/10/26 02:20:18;;;;;;;13.68;7.18;;;18.50;96.70;;;;;;4946724;28;20034;-72
2022/10/26 02:22:49;;;;;;;16.48;7.88;;;18.50;96.70;;;;;;4928776;28;20062;-72
2022/10/26 02:25:21;;;;;;;16.63;6.97;;;18.40;96.70;;;;;;4952862;28;20719;-72
2022/10/26 02:27:53;;;;;;;15.43;6.93;;;18.40;96.70;;;;;;4930887;29;20047;-72
2022/10/26 02:30:21;;;;;;;15.30;6.95;;;18.30;96.70;;;;;;4930253;29;20066;-73
2022/10/26 02:32:53;;;;;;;14.90;7.38;;;18.30;96.70;;;;;;4929316;29;20046;-72
2022/10/26 02:35:26;;;;;;;14.75;7.13;;;18.30;96.70;;;;;;4937943;28;20071;-72
2022/10/26 02:37:56;;;;;;;17.92;6.25;;;18.30;96.70;;;;;;4941724;28;20058;-72
2022/10/26 02:40:26;;;;;;;17.92;7.00;;;18.40;96.70;;;;;;4934242;28;20058;-72
2022/10/26 02:42:56;;;;;;;17.80;6.55;;;18.40;96.70;;;;;;4957483;28;20047;-73
2022/10/26 02:45:27;;;;;;;14.43;6.65;;;18.40;96.70;;;;;;4933341;28;20055;-72
2022/10/26 02:47:57;;;;;;;21.73;7.07;;;18.40;96.70;;;;;;4951714;28;20050;-72
2022/10/26 02:50:31;;;;;;;12.65;6.82;;;18.50;96.70;;;;;;4946039;28;20051;-72
2022/10/26 02:53:09;;;;;;;21.35;8.75;;;18.40;96.70;;;;;;4913277;29;20066;-72
2022/10/26 02:55:43;;;;;;;18.27;7.55;;;18.40;96.70;;;;;;4952164;28;20043;-72
2022/10/26 02:58:17;;;;;;;13.70;7.18;;;18.50;96.70;;;;;;4938128;28;20050;-73
2022/10/26 03:00:45;;;;;;;18.73;6.95;;;18.50;96.70;;;;;;4931065;29;20039;-72
2022/10/26 03:03:15;;;;;;;15.30;6.30;;;18.50;96.70;;;;;;4945938;28;20071;-72
2022/10/26 03:05:43;;;;;;;13.23;6.20;;;18.60;96.70;;;;;;4929244;29;20051;-72
2022/10/26 03:08:11;;;;;;;10.27;5.78;;;18.60;96.70;;;;;;4945199;28;20429;-72
2022/10/26 03:10:41;;;;;;;11.60;6.38;;;18.50;96.70;;;;;;4929306;28;20063;-72
2022/10/26 03:13:10;;;;;;;12.93;6.28;;;18.60;96.70;;;;;;4946816;28;20043;-73
2022/10/26 03:15:38;;;;;;;12.65;6.15;;;18.50;96.70;;;;;;4956130;28;20401;-72
2022/10/26 03:18:12;;;;;;;10.52;6.15;;;18.60;96.70;;;;;;4956153;28;20039;-73
2022/10/26 03:20:43;;;;;;;14.00;6.65;;;18.60;96.70;;;;;;4928630;28;20069;-72
2022/10/26 03:23:16;;;;;;;13.82;5.68;;;18.60;96.70;;;;;;4945486;28;20062;-72
2022/10/26 03:25:43;;;;;;;12.32;6.03;;;18.60;96.70;;;;;;4928833;29;20402;-72
2022/10/26 03:28:12;;;;;;;11.23;5.75;;;18.60;96.70;;;;;;4928263;29;20055;-72
2022/10/26 03:30:39;;;;;;;13.13;5.68;;;18.60;96.70;;;;;;4939006;28;20043;-72
2022/10/26 03:33:07;;;;;;;12.95;5.82;;;18.50;96.70;;;;;;4950035;28;20043;-73
2022/10/26 03:35:35;;;;;;;12.93;5.45;;;18.60;96.70;;;;;;4947608;28;20117;-72
2022/10/26 03:38:04;;;;;;;16.40;6.03;;;18.50;96.70;;;;;;4935722;29;20563;-71
2022/10/26 03:40:32;;;;;;;13.60;5.78;;;18.40;96.70;;;;;;4924614;29;20058;-72
2022/10/26 03:43:00;;;;;;;13.70;5.60;;;18.40;96.70;;;;;;4927994;29;20537;-72
2022/10/26 03:45:28;;;;;;;11.75;5.18;;;18.40;96.70;;;;;;4956242;28;20039;-72
2022/10/26 03:47:55;;;;;;;11.27;5.60;;;18.40;96.70;;;;;;4953476;28;20047;-72
2022/10/26 03:50:23;;;;;;;9.65;5.05;;;18.30;96.70;;;;;;4928888;28;20058;-73
2022/10/26 03:52:51;;;;;;;11.68;5.13;;;18.30;96.70;;;;;;4927744;29;20587;-72
2022/10/26 03:55:20;;;;;;;12.80;5.22;;;18.30;96.70;;;;;;4961895;28;20043;-72
2022/10/26 03:57:48;;;;;;;13.43;5.32;;;18.20;96.70;;;;;;4951858;28;20071;-72
2022/10/26 04:00:17;;;;;;;14.30;6.00;;;18.30;96.70;;;;;;4953926;28;20047;-73
2022/10/26 04:02:52;;;;;;;14.93;5.88;;;18.30;96.70;;;;;;4943802;28;20043;-72
2022/10/26 04:05:19;;;;;;;11.75;5.18;;;18.30;96.70;;;;;;4954717;28;20068;-72
2022/10/26 04:07:52;;;;;;;14.07;5.85;;;18.30;96.70;;;;;;4967951;28;20046;-72
2022/10/26 04:10:21;;;;;;;11.60;5.97;;;18.40;96.70;;;;;;4913178;29;20055;-72
2022/10/26 04:12:49;;;;;;;18.58;5.68;;;18.40;96.70;;;;;;4946502;28;20043;-71
2022/10/26 04:15:22;;;;;;;16.77;6.47;;;18.40;96.70;;;;;;4951820;28;20117;-72
2022/10/26 04:17:55;;;;;;;11.32;5.82;;;18.40;96.70;;;;;;4946455;28;20050;-72
2022/10/26 04:20:23;;;;;;;15.68;6.18;;;18.30;96.70;;;;;;4942852;28;20389;-72
2022/10/26 04:23:01;;;;;;;12.07;5.30;;;18.40;96.70;;;;;;4918213;28;20453;-72
2022/10/26 04:25:32;;;;;;;11.45;6.10;;;18.40;96.70;;;;;;4944217;28;20039;-72
2022/10/26 04:28:01;;;;;;;13.45;6.20;;;18.40;96.70;;;;;;4950353;28;20505;-73
2022/10/26 04:30:29;;;;;;;17.38;5.78;;;18.30;96.70;;;;;;4958520;28;20054;-72
2022/10/26 04:32:57;;;;;;;17.38;6.32;;;18.30;96.70;;;;;;4964306;28;20055;-72
2022/10/26 04:35:25;;;;;;;11.55;6.38;;;18.30;96.70;;;;;;4931219;28;20044;-72
2022/10/26 04:37:57;;;;;;;13.05;5.80;;;18.20;96.70;;;;;;4956824;28;20154;-71
2022/10/26 04:40:26;;;;;;;17.00;5.75;;;18.20;96.70;;;;;;4926964;29;20060;-72
2022/10/26 04:42:56;;;;;;;18.35;5.97;;;18.20;96.70;;;;;;4917153;29;20605;-72
2022/10/26 04:45:26;;;;;;;9.43;5.70;;;18.20;96.70;;;;;;4918132;29;20474;-72
2022/10/26 04:47:59;;;;;;;16.45;6.18;;;18.10;96.70;;;;;;4914077;29;20677;-73
2022/10/26 04:50:28;;;;;;;11.75;5.88;;;18.10;96.70;;;;;;4917265;29;20056;-72
2022/10/26 04:52:57;;;;;;;17.00;5.93;;;18.20;96.70;;;;;;4911710;29;20067;-72
2022/10/26 04:55:25;;;;;;;12.48;6.25;;;18.20;96.70;;;;;;4923155;29;20103;-72
2022/10/26 04:57:55;;;;;;;18.05;6.47;;;18.20;96.70;;;;;;4919240;29;20040;-72
2022/10/26 05:00:29;;;;;;;16.85;5.70;;;18.20;96.70;;;;;;4923044;29;20052;-72
2022/10/26 05:03:00;;;;;;;16.10;6.47;;;18.20;96.70;;;;;;4914591;29;20040;-72
2022/10/26 05:05:31;;;;;;;13.55;6.20;;;18.20;96.70;;;;;;4916930;29;20147;-71
2022/10/26 05:07:59;;;;;;;14.32;6.25;;;18.20;96.70;;;;;;4911889;29;20054;-72
2022/10/26 05:10:28;;;;;;;15.45;7.05;;;18.20;96.70;;;;;;4917237;29;20044;-72
2022/10/26 05:12:59;;;;;;;16.27;6.88;;;18.20;96.70;;;;;;4908815;29;20103;-72
2022/10/26 05:15:28;;;;;;;14.07;6.93;;;18.20;96.70;;;;;;4925422;29;20054;-71
2022/10/26 05:17:57;;;;;;;13.85;7.05;;;18.20;96.70;;;;;;4924037;29;20055;-72
2022/10/26 05:20:30;;;;;;;17.20;7.03;;;18.20;96.70;;;;;;4925941;29;20047;-72
2022/10/26 05:23:00;;;;;;;16.92;7.25;;;18.20;96.70;;;;;;4924613;29;20044;-72
2022/10/26 05:25:30;;;;;;;13.38;7.10;;;18.20;96.70;;;;;;4923205;29;20048;-72
2022/10/26 05:28:01;;;;;;;18.70;6.97;;;18.20;96.70;;;;;;4923817;29;20131;-71
2022/10/26 05:30:30;;;;;;;15.93;7.13;;;18.20;96.70;;;;;;4915832;29;20044;-71
2022/10/26 05:33:01;;;;;;;19.40;8.27;;;18.10;96.70;;;;;;4911936;29;20062;-72
2022/10/26 05:35:31;;;;;;;16.83;7.55;;;18.10;96.70;;;;;;4926669;29;20052;-72
2022/10/26 05:37:59;;;;;;;25.90;8.10;;;18.20;96.70;;;;;;4923808;29;20071;-72
2022/10/26 05:40:27;;;;;;;22.15;8.07;;;18.20;96.70;;;;;;4934530;28;20058;-71
2022/10/26 05:43:03;;;;;;;22.45;7.75;;;18.20;96.70;;;;;;4961139;28;20071;-72
2022/10/26 05:45:31;;;;;;;23.48;8.73;;;18.10;96.70;;;;;;4948434;28;20058;-71
2022/10/26 05:47:59;;;;;;;29.40;8.70;;;18.10;96.70;;;;;;4914159;28;20055;-72
2022/10/26 05:50:30;;;;;;;26.40;8.73;;;18.10;96.70;;;;;;4946544;28;20054;-71
2022/10/26 05:52:58;;;;;;;23.35;8.63;;;18.10;96.70;;;;;;4960803;28;20532;-73
2022/10/26 05:55:27;;;;;;;28.50;10.10;;;18.20;96.70;;;;;;4949181;28;20078;-72
2022/10/26 05:58:00;;;;;;;28.60;9.82;;;18.20;96.70;;;;;;4937059;29;20047;-74
2022/10/26 06:00:29;;;;;;;29.95;10.77;;;18.30;96.70;;;;;;4930681;28;20055;-73
2022/10/26 06:03:13;;;;;;;38.67;10.50;;;18.30;96.70;;;;;;4932347;28;20170;-74
2022/10/26 06:05:52;;;;;;;30.60;9.80;;;18.40;96.70;;;;;;4944071;28;20036;-73
2022/10/26 06:08:22;;;;;;;31.02;9.85;;;18.40;96.70;;;;;;4932836;28;20058;-73
2022/10/26 06:10:52;;;;;;;32.47;10.23;;;18.50;96.70;;;;;;4947689;28;20529;-73
2022/10/26 06:13:23;;;;;;;26.13;9.55;;;18.50;96.70;;;;;;4945319;28;20097;-73
2022/10/26 06:16:08;;;;;;;32.08;11.05;;;18.50;96.70;;;;;;4959792;28;20042;-72
2022/10/26 06:18:45;;;;;;;35.80;10.80;;;18.40;96.70;;;;;;4929916;28;20742;-73
2022/10/26 06:21:29;;;;;;;24.30;9.65;;;18.50;96.70;;;;;;4945614;28;20053;-73
2022/10/26 06:24:04;;;;;;;29.60;9.73;;;18.50;96.70;;;;;;4945261;28;20055;-72
2022/10/26 06:26:41;;;;;;;36.25;10.25;;;18.50;96.70;;;;;;4928786;28;20046;-71
2022/10/26 06:29:21;;;;;;;30.65;10.02;;;18.50;96.70;;;;;;4930485;28;20051;-72
2022/10/26 06:31:49;;;;;;;28.77;10.77;;;18.40;96.70;;;;;;4929122;28;20039;-72
2022/10/26 06:34:26;;;;;;;36.42;10.98;;;18.50;96.70;;;;;;4946541;28;20413;-73
2022/10/26 06:36:56;;;;;;;31.02;11.57;;;18.50;96.70;;;;;;4942659;28;20754;-72
2022/10/26 06:39:27;;;;;;;39.80;12.75;;;18.50;96.70;;;;;;4957843;28;20076;-73
2022/10/26 06:41:57;;;;;;;30.20;12.98;;;18.50;96.70;;;;;;4931574;29;20081;-72
2022/10/26 06:44:27;;;;;;;31.77;12.73;;;18.40;96.70;;;;;;4933241;28;20043;-72
2022/10/26 06:47:04;;;;;;;37.53;12.95;;;18.40;96.70;;;;;;4935949;28;20450;-72
2022/10/26 06:49:36;;;;;;;31.20;12.48;;;18.40;96.70;;;;;;4935094;28;20055;-72
2022/10/26 06:52:14;;;;;;;28.45;12.52;;;18.50;96.70;;;;;;4943953;28;20122;-72
2022/10/26 06:54:50;;;;;;;24.52;13.52;;;18.50;96.70;;;;;;4946968;28;20050;-73
2022/10/26 06:57:20;;;;;;;27.30;13.60;;;18.60;96.70;;;;;;4941614;28;20054;-72
2022/10/26 06:59:52;;;;;;;25.92;12.07;;;18.60;96.70;;;;;;4959121;28;20531;-72
2022/10/26 07:02:23;;;;;;;28.38;13.00;;;18.70;96.70;;;;;;4930109;28;20062;-72
2022/10/26 07:04:51;;;;;;;30.63;12.98;;;18.70;96.70;;;;;;4927649;29;20043;-71
2022/10/26 07:07:21;;;;;;;29.02;12.48;;;18.80;96.70;;;;;;4946361;28;20039;-71
2022/10/26 07:09:50;;;;;;;29.30;13.23;;;18.70;96.70;;;;;;4943565;28;20098;-72
2022/10/26 07:12:18;;;;;;;25.27;12.05;;;18.80;96.70;;;;;;4929789;29;20391;-72
2022/10/26 07:14:47;;;;;;;28.02;11.75;;;18.80;96.70;;;;;;4931031;29;20481;-71
2022/10/26 07:17:16;;;;;;;24.90;11.60;;;18.70;96.70;;;;;;4929681;29;20047;-71
2022/10/26 07:19:45;;;;;;;27.88;12.05;;;18.80;96.70;;;;;;4951317;28;20047;-72
2022/10/26 07:22:13;;;;;;;24.10;11.73;;;18.90;96.70;;;;;;4950752;28;20054;-72
2022/10/26 07:24:41;;;;;;;17.42;9.77;;;18.90;96.70;;;;;;4939950;28;20074;-71
2022/10/26 07:27:09;;;;;;;17.23;10.23;;;19.00;96.70;;;;;;4974054;28;20042;-72
2022/10/26 07:29:38;;;;;;;18.52;9.80;;;19.10;96.70;;;;;;4939698;28;20042;-72
2022/10/26 07:32:06;;;;;;;18.30;9.90;;;19.10;96.70;;;;;;4957568;28;20405;-72
2022/10/26 07:34:36;;;;;;;19.77;10.85;;;19.20;96.70;;;;;;4927811;28;20453;-72
2022/10/26 07:37:04;;;;;;;17.27;10.07;;;19.20;96.70;;;;;;4928670;28;20972;-73
2022/10/26 07:39:32;;;;;;;17.67;10.00;;;19.30;96.70;;;;;;4929007;29;20154;-72
2022/10/26 07:42:00;;;;;;;16.00;9.80;;;19.40;96.70;;;;;;4890338;29;20414;-72
2022/10/26 07:44:29;;;;;;;22.98;10.00;;;19.50;96.70;;;;;;4909324;29;20054;-72
2022/10/26 07:46:57;;;;;;;16.42;9.15;;;19.50;96.70;;;;;;4921903;29;20048;-71
2022/10/26 07:49:25;;;;;;;21.08;10.95;;;19.60;96.70;;;;;;4908982;29;20123;-72
2022/10/26 07:51:56;;;;;;;21.90;11.15;;;19.60;96.70;;;;;;4891454;29;20163;-72
2022/10/26 07:54:24;;;;;;;25.45;11.63;;;19.60;96.70;;;;;;4918320;29;20043;-72
2022/10/26 07:56:52;;;;;;;20.23;11.52;;;19.50;96.70;;;;;;4921155;29;20044;-71
2022/10/26 07:59:21;;;;;;;29.38;13.43;;;19.40;96.70;;;;;;4915053;29;20545;-71
2022/10/26 08:01:49;;;;;;;28.90;14.05;;;19.30;96.70;;;;;;4920611;29;20037;-71
2022/10/26 08:04:17;;;;;;;28.10;13.50;;;19.30;96.70;;;;;;4908133;29;20055;-72
2022/10/26 08:06:46;;;;;;;29.00;15.30;;;19.30;96.70;;;;;;4920830;29;20083;-72
2022/10/26 08:09:15;;;;;;;30.52;15.93;;;19.40;96.70;;;;;;4919622;29;20059;-71
2022/10/26 08:11:43;;;;;;;33.15;17.70;;;19.40;96.70;;;;;;4921836;29;20043;-72
2022/10/26 08:14:12;;;;;;;34.20;18.88;;;19.40;96.70;;;;;;4923819;29;20040;-72
2022/10/26 08:16:40;;;;;;;34.45;18.25;;;19.50;96.70;;;;;;4921242;29;20044;-71
2022/10/26 08:19:08;;;;;;;35.40;19.17;;;19.40;96.70;;;;;;4909147;29;20146;-71
2022/10/26 08:21:36;;;;;;;39.20;19.20;;;19.40;96.70;;;;;;4909361;29;20567;-71
2022/10/26 08:24:08;;;;;;;43.88;19.10;;;19.40;96.70;;;;;;4917895;29;20043;-72
2022/10/26 08:26:38;;;;;;;46.47;19.60;;;19.40;96.70;;;;;;4917456;29;20400;-72
2022/10/26 08:29:06;;;;;;;37.35;17.58;;;19.50;96.70;;;;;;4915162;29;20044;-72
2022/10/26 08:31:34;;;;;;;38.88;17.42;;;19.60;96.70;;;;;;4910542;29;20612;-72
2022/10/26 08:34:03;;;;;;;31.15;17.08;;;19.60;96.70;;;;;;4910687;29;20071;-73
2022/10/26 08:36:31;;;;;;;28.13;13.73;;;19.80;96.70;;;;;;4912915;29;20051;-72
2022/10/26 08:38:59;;;;;;;23.08;13.02;;;19.90;96.70;;;;;;4911410;29;20052;-73
2022/10/26 08:41:35;;;;;;;22.02;13.32;;;19.90;96.70;;;;;;4939503;28;20078;-72
2022/10/26 08:44:18;;;;;;;22.03;10.60;;;20.00;96.70;;;;;;4931068;28;20071;-73
2022/10/26 08:46:52;;;;;;;17.58;10.15;;;20.10;96.70;;;;;;4947993;28;20310;-73
2022/10/26 08:49:24;;;;;;;21.65;10.90;;;20.20;96.70;;;;;;4930020;29;20113;-72
2022/10/26 08:51:56;;;;;;;15.75;9.27;;;20.20;96.70;;;;;;4930899;28;20118;-72
2022/10/26 08:54:33;;;;;;;16.58;8.48;;;20.40;96.70;;;;;;4924489;28;20051;-72
2022/10/26 08:57:15;;;;;;;17.60;9.07;;;20.50;96.70;;;;;;4961946;28;20101;-72
2022/10/26 08:59:51;;;;;;;18.85;9.43;;;20.60;96.70;;;;;;4949385;28;20173;-71
2022/10/26 09:02:20;;;;;;;15.05;9.15;;;20.60;96.70;;;;;;4931940;28;20458;-72
2022/10/26 09:04:48;;;;;;;13.23;7.55;;;20.70;96.70;;;;;;4947118;28;20039;-71
2022/10/26 09:07:36;;;;;;;17.33;10.43;;;20.90;96.70;;;;;;4951610;28;20058;-72
2022/10/26 09:10:18;;;;;;;13.80;8.23;;;20.90;96.70;;;;;;4944220;28;20508;-72
2022/10/26 09:12:53;;;;;;;20.50;9.77;;;21.00;96.70;;;;;;4931554;29;20047;-72
2022/10/26 09:15:33;;;;;;;19.30;9.13;;;21.00;96.70;;;;;;4956962;28;20045;-72
2022/10/26 09:18:14;;;;;;;17.55;8.68;;;21.20;96.70;;;;;;4948761;28;20510;-71
2022/10/26 09:21:00;;;;;;;13.32;8.38;;;21.30;96.70;;;;;;4948039;28;20101;-71
2022/10/26 09:23:40;;;;;;;20.58;8.75;;;21.40;96.70;;;;;;4946632;28;20039;-72
2022/10/26 09:26:12;;;;;;;18.48;7.85;;;21.50;96.70;;;;;;4956293;28;20506;-72
2022/10/26 09:28:43;;;;;;;17.75;9.27;;;21.60;96.70;;;;;;4947177;28;20094;-72
2022/10/26 09:31:16;;;;;;;23.38;9.20;;;21.60;96.70;;;;;;4946235;28;20520;-71
2022/10/26 09:33:44;;;;;;;17.08;8.90;;;21.70;96.70;;;;;;4930580;28;20137;-72
2022/10/26 09:36:17;;;;;;;20.63;9.25;;;21.70;96.70;;;;;;4966273;28;20051;-73
2022/10/26 09:38:52;;;;;;;22.98;8.93;;;21.90;96.70;;;;;;4929649;29;20584;-72
2022/10/26 09:41:26;;;;;;;18.67;9.38;;;21.90;96.70;;;;;;4947744;28;20146;-72
2022/10/26 09:44:04;;;;;;;17.23;8.88;;;21.90;96.70;;;;;;4946391;28;20055;-72
2022/10/26 09:46:42;;;;;;;19.75;9.73;;;22.00;96.70;;;;;;4930986;28;20053;-73
2022/10/26 09:49:14;;;;;;;20.75;9.07;;;22.00;96.70;;;;;;4934620;28;20057;-72
2022/10/26 09:51:45;;;;;;;24.10;9.15;;;22.10;96.70;;;;;;4958977;28;20046;-72
2022/10/26 09:54:15;;;;;;;17.48;9.27;;;22.00;96.70;;;;;;4939443;28;20062;-72
2022/10/26 09:56:46;;;;;;;24.98;10.32;;;22.20;96.70;;;;;;4945100;28;20046;-72
2022/10/26 09:59:23;;;;;;;12.52;6.60;;;22.20;96.70;;;;;;4930101;29;20039;-73
2022/10/26 10:01:52;;;;;;;22.08;8.85;;;22.20;96.70;;;;;;4929836;29;20073;-72
2022/10/26 10:04:22;;;;;;;21.85;9.10;;;22.30;96.70;;;;;;4947028;28;20039;-72
2022/10/26 10:06:51;;;;;;;23.55;8.85;;;22.40;96.70;;;;;;4928628;28;20047;-72
2022/10/26 10:09:21;;;;;;;24.48;8.77;;;22.40;96.70;;;;;;4948756;28;20051;-72
2022/10/26 10:11:55;;;;;;;18.48;7.70;;;22.40;96.70;;;;;;4957644;28;20632;-72
2022/10/26 10:14:25;;;;;;;20.63;7.85;;;22.50;96.70;;;;;;4947579;28;20122;-73
2022/10/26 10:16:56;;;;;;;19.08;7.55;;;22.50;96.70;;;;;;4929448;29;20047;-72
2022/10/26 10:19:27;;;;;;;21.38;7.47;;;22.70;96.70;;;;;;4946942;28;20512;-72
2022/10/26 10:21:57;;;;;;;19.20;8.35;;;22.70;96.70;;;;;;4953318;28;20051;-72
2022/10/26 10:24:30;;;;;;;22.80;7.80;;;22.80;96.70;;;;;;4961051;28;20055;-72
2022/10/26 10:27:01;;;;;;;20.98;7.85;;;22.80;96.70;;;;;;4956211;28;20062;-73
2022/10/26 10:29:31;;;;;;;25.48;8.60;;;22.80;96.70;;;;;;4953298;28;20722;-72
2022/10/26 10:32:02;;;;;;;19.65;7.95;;;22.80;96.70;;;;;;4927241;28;20134;-72
2022/10/26 10:34:31;;;;;;;27.10;8.40;;;22.90;96.70;;;;;;4948137;28;20098;-72
2022/10/26 10:37:04;;;;;;;20.63;8.27;;;23.00;96.70;;;;;;4945561;28;20047;-71
2022/10/26 10:39:41;;;;;;;21.05;7.70;;;23.00;96.70;;;;;;4941010;28;20398;-72
2022/10/26 10:42:17;;;;;;;20.50;7.95;;;23.00;96.70;;;;;;4955561;28;20094;-72
2022/10/26 10:44:50;;;;;;;17.52;7.93;;;23.10;96.70;;;;;;4933375;29;20047;-72
2022/10/26 10:47:22;;;;;;;20.83;7.85;;;23.20;96.70;;;;;;4930441;28;20058;-72
2022/10/26 10:49:54;;;;;;;20.83;8.35;;;23.20;96.70;;;;;;4927061;28;20044;-72
2022/10/26 10:52:26;;;;;;;22.48;8.10;;;23.20;96.70;;;;;;4929142;28;20165;-73
2022/10/26 10:55:09;;;;;;;17.95;7.38;;;23.20;96.70;;;;;;4948718;28;20584;-73
2022/10/26 10:57:53;;;;;;;20.83;7.15;;;23.40;96.70;;;;;;4958819;28;20046;-73
2022/10/26 11:00:24;;;;;;;26.33;8.15;;;23.50;96.70;;;;;;4937829;28;20121;-73
2022/10/26 11:03:35;;;;;;;25.80;7.03;;;23.60;96.70;;;;;;4947009;28;20507;-72
2022/10/26 11:06:17;;;;;;;18.58;6.68;;;23.70;96.70;;;;;;4945774;28;20383;-72
2022/10/26 11:08:49;;;;;;;20.08;7.63;;;24.00;96.70;;;;;;4944012;28;20126;-72
2022/10/26 11:11:22;;;;;;;24.02;7.00;;;24.10;96.70;;;;;;4942753;28;20043;-72
2022/10/26 11:13:54;;;;;;;17.13;6.43;;;24.20;96.70;;;;;;4934652;28;20102;-72
2022/10/26 11:16:27;;;;;;;24.38;6.95;;;24.20;96.70;;;;;;4951147;28;20054;-72
2022/10/26 11:19:01;;;;;;;21.48;6.25;;;24.30;96.70;;;;;;4927728;29;20067;-72
2022/10/26 11:21:32;;;;;;;20.38;6.63;;;24.40;96.70;;;;;;4928835;29;20051;-72
2022/10/26 11:24:13;;;;;;;17.25;6.65;;;24.50;96.70;;;;;;4924405;28;20406;-72
2022/10/26 11:26:48;;;;;;;24.75;7.05;;;24.60;96.70;;;;;;4945994;28;20130;-72
2022/10/26 11:29:22;;;;;;;24.67;6.53;;;24.50;96.70;;;;;;4932266;28;20588;-72
2022/10/26 11:31:56;;;;;;;20.25;6.85;;;24.60;96.70;;;;;;4957141;28;20043;-72
2022/10/26 11:34:33;;;;;;;18.80;7.68;;;24.60;96.70;;;;;;4947850;28;20053;-73
2022/10/26 11:37:08;;;;;;;26.92;7.07;;;24.70;96.70;;;;;;4943342;28;20117;-74
2022/10/26 11:39:43;;;;;;;23.15;7.45;;;24.80;96.70;;;;;;4941263;28;20394;-73
2022/10/26 11:42:20;;;;;;;22.00;6.80;;;24.90;96.70;;;;;;4953437;28;20046;-74
2022/10/26 11:44:55;;;;;;;21.60;7.05;;;25.00;96.70;;;;;;4933878;29;20047;-73
2022/10/26 11:47:33;;;;;;;20.98;6.10;;;25.00;96.70;;;;;;4947603;28;20105;-73
2022/10/26 11:50:12;;;;;;;19.58;7.00;;;25.20;96.70;;;;;;4954938;28;20050;-73
2022/10/26 11:52:48;;;;;;;20.27;6.90;;;25.30;96.70;;;;;;4934943;28;20054;-73
2022/10/26 11:55:18;;;;;;;27.13;6.93;;;25.50;96.70;;;;;;4954147;28;20221;-73
2022/10/26 11:57:47;;;;;;;18.23;5.60;;;25.50;96.70;;;;;;4956667;28;20097;-73
2022/10/26 12:00:19;;;;;;;20.67;6.93;;;25.60;96.70;;;;;;4935876;28;20631;-73
2022/10/26 12:02:51;;;;;;;25.50;7.80;;;25.70;96.70;;;;;;4975502;28;20123;-74
2022/10/26 12:05:24;;;;;;;21.58;7.10;;;25.70;96.70;;;;;;4939798;28;20073;-73
2022/10/26 12:07:55;;;;;;;22.05;7.10;;;25.80;96.70;;;;;;4960236;28;20043;-73
2022/10/26 12:10:29;;;;;;;21.80;6.88;;;25.70;96.70;;;;;;4935057;28;20433;-73
2022/10/26 12:13:04;;;;;;;25.30;7.28;;;25.70;96.70;;;;;;4936710;28;20057;-73
2022/10/26 12:15:40;;;;;;;24.67;6.00;;;25.80;96.70;;;;;;4935494;29;20042;-73
2022/10/26 12:18:37;;;;;;;21.65;6.03;;;25.90;96.70;;;;;;4955095;28;20421;-74
2022/10/26 12:21:25;;;;;;;27.17;6.70;;;26.10;96.70;;;;;;4933335;29;20047;-73
2022/10/26 12:23:55;;;;;;;24.92;7.22;;;26.10;96.70;;;;;;4951316;28;20065;-74
2022/10/26 12:26:51;;;;;;;23.92;7.22;;;26.10;96.70;;;;;;4933448;28;20047;-74
2022/10/26 12:29:37;;;;;;;22.23;6.28;;;26.30;96.70;;;;;;4940955;28;20054;-74
2022/10/26 12:32:53;;;;;;;24.75;7.05;;;26.30;96.70;;;;;;4958928;28;20042;-73
2022/10/26 12:35:37;;;;;;;22.25;6.78;;;26.40;96.70;;;;;;4966127;28;20393;-73
2022/10/26 12:38:47;;;;;;;23.83;6.65;;;26.60;96.70;;;;;;4955715;28;20051;-74
2022/10/26 12:41:24;;;;;;;26.50;6.78;;;26.60;96.70;;;;;;4943716;28;20089;-74
2022/10/26 12:43:58;;;;;;;24.52;6.82;;;26.40;96.70;;;;;;4931359;29;20131;-74
2022/10/26 12:46:42;;;;;;;22.20;6.85;;;26.30;96.70;;;;;;4951146;28;20066;-74
2022/10/26 12:49:54;;;;;;;26.10;7.30;;;26.30;96.70;;;;;;4933164;28;20528;-73
2022/10/26 12:52:51;;;;;;;23.20;6.78;;;26.40;96.70;;;;;;4915421;28;20513;-74
2022/10/26 12:55:49;;;;;;;18.77;6.18;;;26.60;96.70;;;;;;4952074;28;20572;-74
2022/10/26 12:58:56;;;;;;;23.23;5.45;;;26.60;96.70;;;;;;4950400;28;20047;-74
2022/10/26 13:01:57;;;;;;;25.23;6.15;;;26.70;96.70;;;;;;4930197;28;20098;-74
2022/10/26 13:04:54;;;;;;;23.50;6.32;;;26.80;96.70;;;;;;4942002;28;20105;-72
2022/10/26 13:07:24;;;;;;;27.92;6.55;;;26.80;96.70;;;;;;4937704;28;20060;-73